createdAt,value
2022-08-05T00:01:30.768Z,27.88
2022-08-05T00:04:03.449Z,27.84
2022-08-05T00:06:33.377Z,27.69
2022-08-05T00:09:03.081Z,27.85
2022-08-05T00:11:30.612Z,27.69
2022-08-05T00:14:12.071Z,27.86
2022-08-05T00:16:53.372Z,27.80
2022-08-05T00:19:22.657Z,27.82
2022-08-05T00:21:50.127Z,27.85
2022-08-05T00:24:19.157Z,27.66
2022-08-05T00:26:52.195Z,27.77
2022-08-05T00:29:22.692Z,27.90
2022-08-05T00:32:10.206Z,27.87
2022-08-05T00:35:03.564Z,27.89
2022-08-05T00:37:35.444Z,27.86
2022-08-05T00:40:27.929Z,27.87
2022-08-05T00:42:59.115Z,27.81
2022-08-05T00:45:37.821Z,27.86
2022-08-05T00:48:07.480Z,27.79
2022-08-05T00:50:34.215Z,27.76
2022-08-05T00:53:00.917Z,27.73
2022-08-05T00:55:34.022Z,27.72
2022-08-05T00:58:11.262Z,27.75
2022-08-05T01:00:38.601Z,27.76
2022-08-05T01:03:07.875Z,27.71
2022-08-05T01:05:34.913Z,27.53
2022-08-05T01:08:41.597Z,27.33
2022-08-05T01:10:54.475Z,27.23
2022-08-05T01:13:58.872Z,27.19
2022-08-05T01:16:37.222Z,27.20
2022-08-05T01:19:46.177Z,27.17
2022-08-05T01:22:27.829Z,27.15
2022-08-05T01:25:23.564Z,27.17
2022-08-05T01:28:36.326Z,27.03
2022-08-05T01:31:21.545Z,27.17
2022-08-05T01:34:03.228Z,27.11
2022-08-05T01:36:34.013Z,27.21
2022-08-05T01:39:01.502Z,26.99
2022-08-05T01:41:34.740Z,26.95
2022-08-05T01:44:06.797Z,26.88
2022-08-05T01:46:42.529Z,26.89
2022-08-05T01:49:23.971Z,26.84
2022-08-05T01:51:58.386Z,26.70
2022-08-05T01:54:30.063Z,26.80
2022-08-05T01:58:10.637Z,26.95
2022-08-05T01:59:48.257Z,26.97
2022-08-05T02:02:17.698Z,26.91
2022-08-05T02:04:46.265Z,26.89
2022-08-05T02:07:21.581Z,27.00
2022-08-05T02:09:48.798Z,27.07
2022-08-05T02:12:19.794Z,27.10
2022-08-05T02:14:52.500Z,27.07
2022-08-05T02:18:32.146Z,27.13
2022-08-05T02:20:27.802Z,27.10
2022-08-05T02:22:59.927Z,27.17
2022-08-05T02:25:33.139Z,27.24
2022-08-05T02:28:00.920Z,27.24
2022-08-05T02:30:33.316Z,26.98
2022-08-05T02:33:02.234Z,26.88
2022-08-05T02:35:37.794Z,26.87
2022-08-05T02:38:12.399Z,26.64
2022-08-05T02:40:46.481Z,26.55
2022-08-05T02:43:16.617Z,26.48
2022-08-05T02:45:52.806Z,26.66
2022-08-05T02:48:29.143Z,26.57
2022-08-05T02:50:59.789Z,26.53
2022-08-05T02:53:27.778Z,26.43
2022-08-05T02:56:00.392Z,26.36
2022-08-05T02:58:30.588Z,26.44
2022-08-05T03:01:00.335Z,26.50
2022-08-05T03:03:34.174Z,26.32
2022-08-05T03:06:55.155Z,26.24
2022-08-05T03:09:04.480Z,26.36
2022-08-05T03:11:54.487Z,26.43
2022-08-05T03:14:18.044Z,26.58
2022-08-05T03:16:45.638Z,26.60
2022-08-05T03:19:16.911Z,26.68
2022-08-05T03:21:49.597Z,26.78
2022-08-05T03:24:29.529Z,26.85
2022-08-05T03:26:56.334Z,26.88
2022-08-05T03:29:23.933Z,26.95
2022-08-05T03:31:55.752Z,27.10
2022-08-05T03:34:24.406Z,27.05
2022-08-05T03:36:51.054Z,26.84
2022-08-05T03:39:20.351Z,26.74
2022-08-05T03:41:53.314Z,26.73
2022-08-05T03:44:23.024Z,26.76
2022-08-05T03:46:49.605Z,26.68
2022-08-05T03:49:16.066Z,26.48
2022-08-05T03:52:48.602Z,26.21
2022-08-05T03:56:06.147Z,26.16
2022-08-05T03:57:51.965Z,26.31
2022-08-05T04:00:25.897Z,26.36
2022-08-05T04:02:58.389Z,26.30
2022-08-05T04:05:36.084Z,26.09
2022-08-05T04:08:29.706Z,26.18
2022-08-05T04:10:53.359Z,26.23
2022-08-05T04:13:21.572Z,26.24
2022-08-05T04:15:52.767Z,26.13
2022-08-05T04:18:30.070Z,25.90
2022-08-05T04:20:57.675Z,25.96
2022-08-05T04:23:57.329Z,26.04
2022-08-05T04:26:17.421Z,26.01
2022-08-05T04:28:51.122Z,25.96
2022-08-05T04:31:18.635Z,25.81
2022-08-05T04:34:18.639Z,25.88
2022-08-05T04:36:45.164Z,25.73
2022-08-05T04:39:13.265Z,25.81
2022-08-05T04:41:39.790Z,25.75
2022-08-05T04:44:09.329Z,25.63
2022-08-05T04:46:37.161Z,25.58
2022-08-05T04:49:05.336Z,25.64
2022-08-05T04:51:38.892Z,25.59
2022-08-05T04:54:05.378Z,25.56
2022-08-05T04:56:36.857Z,25.56
2022-08-05T04:59:21.789Z,25.61
2022-08-05T05:02:35.162Z,25.60
2022-08-05T05:04:38.490Z,25.66
2022-08-05T05:07:11.583Z,25.68
2022-08-05T05:09:42.287Z,25.78
2022-08-05T05:12:10.840Z,25.64
2022-08-05T05:14:38.181Z,25.72
2022-08-05T05:17:17.738Z,25.55
2022-08-05T05:19:50.238Z,25.72
2022-08-05T05:22:23.526Z,25.78
2022-08-05T05:24:58.389Z,25.77
2022-08-05T05:27:41.735Z,25.95
2022-08-05T05:30:29.136Z,25.84
2022-08-05T05:33:00.770Z,25.87
2022-08-05T05:35:28.978Z,25.93
2022-08-05T05:38:02.136Z,25.92
2022-08-05T05:40:30.156Z,25.78
2022-08-05T05:42:59.452Z,25.61
2022-08-05T05:45:26.373Z,25.53
2022-08-05T05:48:06.094Z,25.51
2022-08-05T05:50:40.987Z,25.65
2022-08-05T05:53:21.473Z,25.78
2022-08-05T05:55:52.450Z,25.62
2022-08-05T05:58:31.814Z,25.67
2022-08-05T06:01:02.075Z,25.73
2022-08-05T06:03:54.398Z,25.65
2022-08-05T06:06:27.775Z,25.75
2022-08-05T06:08:57.138Z,25.76
2022-08-05T06:11:23.574Z,25.77
2022-08-05T06:13:53.632Z,25.83
2022-08-05T06:16:30.696Z,25.79
2022-08-05T06:19:05.387Z,25.86
2022-08-05T06:21:36.855Z,25.75
2022-08-05T06:24:12.146Z,25.83
2022-08-05T06:26:51.322Z,26.01
2022-08-05T06:29:25.286Z,26.07
2022-08-05T06:32:21.230Z,26.07
2022-08-05T06:34:53.482Z,26.21
2022-08-05T06:37:56.203Z,26.27
2022-08-05T06:40:09.655Z,26.25
2022-08-05T06:42:37.224Z,26.32
2022-08-05T06:45:08.890Z,26.48
2022-08-05T06:48:47.115Z,26.73
2022-08-05T06:50:22.373Z,26.68
2022-08-05T06:52:58.684Z,26.66
2022-08-05T06:55:30.133Z,26.60
2022-08-05T06:58:29.186Z,26.56
2022-08-05T07:00:49.214Z,26.42
2022-08-05T07:03:16.730Z,26.44
2022-08-05T07:05:44.023Z,26.52
2022-08-05T07:08:12.789Z,26.56
2022-08-05T07:10:53.048Z,26.52
2022-08-05T07:13:59.308Z,26.61
2022-08-05T07:18:01.163Z,26.60
2022-08-05T07:20:29.866Z,27.08
2022-08-05T07:22:22.064Z,27.20
2022-08-05T07:24:55.947Z,27.67
2022-08-05T07:27:22.861Z,28.02
2022-08-05T07:30:27.918Z,28.39
2022-08-05T07:32:40.689Z,28.63
2022-08-05T07:36:04.848Z,28.70
2022-08-05T07:37:55.625Z,28.64
2022-08-05T07:40:31.721Z,28.96
2022-08-05T07:42:59.246Z,29.28
2022-08-05T07:45:56.460Z,29.61
2022-08-05T07:48:21.161Z,30.15
2022-08-05T07:51:05.221Z,30.81
2022-08-05T07:53:51.601Z,31.31
2022-08-05T07:57:01.154Z,31.72
2022-08-05T07:59:05.031Z,31.28
2022-08-05T08:01:35.042Z,30.66
2022-08-05T08:04:07.942Z,30.16
2022-08-05T08:06:34.399Z,29.84
2022-08-05T08:09:00.825Z,29.66
2022-08-05T08:11:48.262Z,30.22
2022-08-05T08:14:18.253Z,31.06
2022-08-05T08:16:51.470Z,31.97
2022-08-05T08:20:10.159Z,32.64
2022-08-05T08:22:09.048Z,32.66
2022-08-05T08:24:51.868Z,33.05
2022-08-05T08:27:18.567Z,33.52
2022-08-05T08:30:06.170Z,34.23
2022-08-05T08:32:36.158Z,34.44
2022-08-05T08:35:13.701Z,34.24
2022-08-05T08:37:40.434Z,32.50
2022-08-05T08:40:11.987Z,32.85
2022-08-05T08:42:46.805Z,33.35
2022-08-05T08:45:27.230Z,33.58
2022-08-05T08:48:12.922Z,33.73
2022-08-05T08:51:07.746Z,33.44
2022-08-05T08:53:37.377Z,34.10
2022-08-05T08:56:06.293Z,34.49
2022-08-05T08:58:43.801Z,34.46
2022-08-05T09:01:15.838Z,35.07
2022-08-05T09:03:46.717Z,34.85
2022-08-05T09:06:18.484Z,34.65
2022-08-05T09:08:46.568Z,34.20
2022-08-05T09:11:14.825Z,34.52
2022-08-05T09:14:09.804Z,34.78
2022-08-05T09:16:29.745Z,34.57
2022-08-05T09:18:56.407Z,34.16
2022-08-05T09:22:22.972Z,34.26
2022-08-05T09:24:15.396Z,34.26
2022-08-05T09:26:46.161Z,34.64
2022-08-05T09:29:17.606Z,33.86
2022-08-05T09:32:45.520Z,34.25
2022-08-05T09:34:55.164Z,33.63
2022-08-05T09:38:17.119Z,33.76
2022-08-05T09:40:29.665Z,33.23
2022-08-05T09:42:56.146Z,33.57
2022-08-05T09:46:07.106Z,33.78
2022-08-05T09:48:26.839Z,33.98
2022-08-05T09:51:01.025Z,34.05
2022-08-05T09:53:53.853Z,34.34
2022-08-05T09:56:25.191Z,34.28
2022-08-05T09:59:04.109Z,34.39
2022-08-05T10:01:36.386Z,34.58
2022-08-05T10:04:13.595Z,34.03
2022-08-05T10:06:58.707Z,33.82
2022-08-05T10:09:28.291Z,34.02
2022-08-05T10:12:31.358Z,34.31
2022-08-05T10:15:13.763Z,34.15
2022-08-05T10:17:47.422Z,34.03
2022-08-05T10:20:23.835Z,34.32
2022-08-05T10:22:52.539Z,34.10
2022-08-05T10:25:19.685Z,34.21
2022-08-05T10:28:12.727Z,34.38
2022-08-05T10:32:47.233Z,34.55
2022-08-05T10:33:25.628Z,34.29
2022-08-05T10:35:59.994Z,34.02
2022-08-05T10:38:29.279Z,34.07
2022-08-05T10:41:12.444Z,34.18
2022-08-05T10:43:59.323Z,34.20
2022-08-05T10:46:43.459Z,34.22
2022-08-05T10:49:16.518Z,34.00
2022-08-05T10:51:57.336Z,33.84
2022-08-05T10:54:46.886Z,33.59
2022-08-05T10:57:32.348Z,33.22
2022-08-05T11:00:24.414Z,32.61
2022-08-05T11:03:24.677Z,32.28
2022-08-05T11:06:15.179Z,32.40
2022-08-05T11:09:17.334Z,32.59
2022-08-05T11:11:53.552Z,32.42
2022-08-05T11:14:57.458Z,32.57
2022-08-05T11:17:59.134Z,33.00
2022-08-05T11:20:44.182Z,33.32
2022-08-05T11:23:49.893Z,33.20
2022-08-05T11:26:16.225Z,32.66
2022-08-05T11:28:55.781Z,32.26
2022-08-05T11:31:57.714Z,32.14
2022-08-05T11:34:18.086Z,32.31
2022-08-05T11:36:52.916Z,32.37
2022-08-05T11:39:49.046Z,32.31
2022-08-05T11:42:18.490Z,32.23
2022-08-05T11:44:54.183Z,32.28
2022-08-05T11:47:48.283Z,32.28
2022-08-05T11:50:09.872Z,32.45
2022-08-05T11:52:41.215Z,32.63
2022-08-05T11:55:11.380Z,32.47
2022-08-05T11:58:09.298Z,32.72
2022-08-05T12:00:32.167Z,32.84
2022-08-05T12:03:28.781Z,33.18
2022-08-05T12:06:03.264Z,33.32
2022-08-05T12:08:32.986Z,33.35
2022-08-05T12:11:05.806Z,33.05
2022-08-05T12:13:49.214Z,32.83
2022-08-05T12:16:18.520Z,32.66
2022-08-05T12:18:52.427Z,32.75
2022-08-05T12:21:26.935Z,32.50
2022-08-05T12:24:17.291Z,32.58
2022-08-05T12:26:50.144Z,32.58
2022-08-05T12:29:23.098Z,32.75
2022-08-05T12:31:54.323Z,32.52
2022-08-05T12:34:31.362Z,32.47
2022-08-05T12:37:00.992Z,32.43
2022-08-05T12:39:37.247Z,32.47
2022-08-05T12:42:14.772Z,32.08
2022-08-05T12:44:43.005Z,31.94
2022-08-05T12:47:12.572Z,31.97
2022-08-05T12:50:03.753Z,32.10
2022-08-05T12:52:39.562Z,32.09
2022-08-05T12:55:26.480Z,32.23
2022-08-05T12:58:48.358Z,32.22
2022-08-05T13:02:02.843Z,32.21
2022-08-05T13:03:32.224Z,31.97
2022-08-05T13:06:00.861Z,31.97
2022-08-05T13:08:30.199Z,31.97
2022-08-05T13:11:04.367Z,31.99
2022-08-05T13:14:05.170Z,31.94
2022-08-05T13:16:19.513Z,31.46
2022-08-05T13:18:55.162Z,31.25
2022-08-05T13:21:28.395Z,31.39
2022-08-05T13:24:04.803Z,31.36
2022-08-05T13:26:31.327Z,31.44
2022-08-05T13:28:59.177Z,31.49
2022-08-05T13:32:04.549Z,31.43
2022-08-05T13:34:23.461Z,31.29
2022-08-05T13:36:53.271Z,31.39
2022-08-05T13:40:13.838Z,31.20
2022-08-05T13:42:06.719Z,31.02
2022-08-05T13:44:34.632Z,31.03
2022-08-05T13:47:05.044Z,31.01
2022-08-05T13:49:36.015Z,31.10
2022-08-05T13:52:29.827Z,31.06
2022-08-05T13:54:59.263Z,30.78
2022-08-05T13:57:27.691Z,30.70
2022-08-05T14:00:14.489Z,30.74
2022-08-05T14:02:42.532Z,30.50
2022-08-05T14:05:11.997Z,30.37
2022-08-05T14:08:01.130Z,30.22
2022-08-05T14:10:31.102Z,30.05
2022-08-05T14:12:58.314Z,29.92
2022-08-05T14:16:05.783Z,29.88
2022-08-05T14:18:15.304Z,29.94
2022-08-05T14:20:48.763Z,29.85
2022-08-05T14:23:23.410Z,29.68
2022-08-05T14:25:54.312Z,29.53
2022-08-05T14:28:26.962Z,29.65
2022-08-05T14:30:54.687Z,29.76
2022-08-05T14:33:22.726Z,29.94
2022-08-05T14:35:51.892Z,29.99
2022-08-05T14:38:32.937Z,29.94
2022-08-05T14:41:06.891Z,29.89
2022-08-05T14:44:01.510Z,29.80
2022-08-05T14:46:29.031Z,29.94
2022-08-05T14:48:58.994Z,29.90
2022-08-05T14:51:30.693Z,29.96
2022-08-05T14:54:26.087Z,29.91
2022-08-05T14:56:46.792Z,30.05
2022-08-05T14:59:14.440Z,30.09
2022-08-05T15:01:47.963Z,29.91
2022-08-05T15:04:17.299Z,29.85
2022-08-05T15:06:49.426Z,29.98
2022-08-05T15:09:16.674Z,29.81
2022-08-05T15:12:04.031Z,29.70
2022-08-05T15:14:35.551Z,29.49
2022-08-05T15:17:44.280Z,29.49
2022-08-05T15:19:55.980Z,29.47
2022-08-05T15:22:27.039Z,29.49
2022-08-05T15:24:55.738Z,29.52
2022-08-05T15:27:22.179Z,29.59
2022-08-05T15:29:52.756Z,29.48
2022-08-05T15:32:20.790Z,29.34
2022-08-05T15:34:53.718Z,29.25
2022-08-05T15:38:08.559Z,29.02
2022-08-05T15:41:00.016Z,29.05
2022-08-05T15:42:59.075Z,28.87
2022-08-05T15:45:38.241Z,28.81
2022-08-05T15:48:05.619Z,28.75
2022-08-05T15:50:33.520Z,28.81
2022-08-05T15:53:04.141Z,28.93
2022-08-05T15:56:02.511Z,28.91
2022-08-05T15:58:18.811Z,28.60
2022-08-05T16:01:03.466Z,28.57
2022-08-05T16:03:33.837Z,28.65
2022-08-05T16:06:00.391Z,28.60
2022-08-05T16:08:30.692Z,28.45
2022-08-05T16:10:57.917Z,28.18
2022-08-05T16:13:34.153Z,28.21
2022-08-05T16:16:01.168Z,28.14
2022-08-05T16:18:29.703Z,28.00
2022-08-05T16:20:56.125Z,28.02
2022-08-05T16:23:22.565Z,27.97
2022-08-05T16:25:49.832Z,27.89
2022-08-05T16:28:22.363Z,27.91
2022-08-05T16:30:52.044Z,27.89
2022-08-05T16:33:19.449Z,27.51
2022-08-05T16:35:49.920Z,27.15
2022-08-05T16:38:25.717Z,26.84
2022-08-05T16:41:00.926Z,26.48
2022-08-05T16:43:33.570Z,26.18
2022-08-05T16:46:04.638Z,25.90
2022-08-05T16:48:35.294Z,25.95
2022-08-05T16:51:02.308Z,25.83
2022-08-05T16:54:05.210Z,25.95
2022-08-05T16:56:22.070Z,25.81
2022-08-05T16:58:50.408Z,25.68
2022-08-05T17:01:17.035Z,25.53
2022-08-05T17:03:45.455Z,25.51
2022-08-05T17:06:11.966Z,25.49
2022-08-05T17:08:52.999Z,25.39
2022-08-05T17:11:25.745Z,25.29
2022-08-05T17:13:54.791Z,25.20
2022-08-05T17:16:33.567Z,25.13
2022-08-05T17:19:02.259Z,25.22
2022-08-05T17:21:35.427Z,25.22
2022-08-05T17:24:14.383Z,25.12
2022-08-05T17:26:50.788Z,25.15
2022-08-05T17:29:17.287Z,25.04
2022-08-05T17:31:59.031Z,25.01
2022-08-05T17:34:29.829Z,25.01
2022-08-05T17:36:59.868Z,24.70
2022-08-05T17:39:34.184Z,24.78
2022-08-05T17:42:19.729Z,24.79
2022-08-05T17:44:50.208Z,24.81
2022-08-05T17:47:22.594Z,24.85
2022-08-05T17:50:03.918Z,24.70
2022-08-05T17:52:34.689Z,24.62
2022-08-05T17:55:20.806Z,24.74
2022-08-05T17:57:48.755Z,24.65
2022-08-05T18:00:17.309Z,24.61
2022-08-05T18:02:46.729Z,24.49
2022-08-05T18:05:13.690Z,24.53
2022-08-05T18:07:44.448Z,24.32
2022-08-05T18:10:20.503Z,24.09
2022-08-05T18:12:51.108Z,24.12
2022-08-05T18:15:17.981Z,24.10
2022-08-05T18:18:00.596Z,23.97
2022-08-05T18:20:32.425Z,23.97
2022-08-05T18:23:09.271Z,23.78
2022-08-05T18:25:38.921Z,23.81
2022-08-05T18:28:06.112Z,23.82
2022-08-05T18:30:33.322Z,23.78
2022-08-05T18:33:01.256Z,23.74
2022-08-05T18:35:59.927Z,23.58
2022-08-05T18:38:19.313Z,23.62
2022-08-05T18:41:54.351Z,23.65
2022-08-05T18:43:43.079Z,23.62
2022-08-05T18:46:14.986Z,23.47
2022-08-05T18:48:41.999Z,23.49
2022-08-05T18:52:05.359Z,23.54
2022-08-05T18:54:14.494Z,23.47
2022-08-05T18:56:41.625Z,23.55
2022-08-05T18:59:42.010Z,23.33
2022-08-05T19:02:04.635Z,23.32
2022-08-05T19:05:01.032Z,23.19
2022-08-05T19:07:24.851Z,23.19
2022-08-05T19:09:56.800Z,23.16
2022-08-05T19:12:23.952Z,23.20
2022-08-05T19:15:00.644Z,23.09
2022-08-05T19:17:59.400Z,23.07
2022-08-05T19:20:15.282Z,23.01
2022-08-05T19:22:42.893Z,23.21
2022-08-05T19:25:10.585Z,23.13
2022-08-05T19:27:48.190Z,23.03
2022-08-05T19:30:16.830Z,23.15
2022-08-05T19:32:47.160Z,23.09
2022-08-05T19:35:13.705Z,23.11
2022-08-05T19:38:04.420Z,23.14
2022-08-05T19:40:28.503Z,23.08
2022-08-05T19:43:04.719Z,23.09
2022-08-05T19:45:36.292Z,23.08
2022-08-05T19:48:03.399Z,22.97
2022-08-05T19:50:31.918Z,23.03
2022-08-05T19:52:58.532Z,23.13
2022-08-05T19:56:12.511Z,23.25
2022-08-05T19:58:27.445Z,23.20
2022-08-05T20:00:55.480Z,23.20
2022-08-05T20:03:22.610Z,23.15
2022-08-05T20:05:51.288Z,23.14
2022-08-05T20:08:18.207Z,23.17
2022-08-05T20:10:44.662Z,23.22
2022-08-05T20:13:15.984Z,23.19
2022-08-05T20:15:48.407Z,23.21
2022-08-05T20:18:33.733Z,23.21
2022-08-05T20:21:04.763Z,23.36
2022-08-05T20:23:40.239Z,23.29
2022-08-05T20:26:18.100Z,23.24
2022-08-05T20:29:01.664Z,23.40
2022-08-05T20:31:42.995Z,23.36
2022-08-05T20:34:16.128Z,23.33
2022-08-05T20:36:43.824Z,23.29
2022-08-05T20:39:13.007Z,23.25
2022-08-05T20:41:43.988Z,23.16
2022-08-05T20:44:17.171Z,23.13
2022-08-05T20:46:46.421Z,23.13
2022-08-05T20:49:13.757Z,23.15
2022-08-05T20:51:40.291Z,23.28
2022-08-05T20:54:06.900Z,23.26
2022-08-05T20:56:42.438Z,23.13
2022-08-05T20:59:19.394Z,23.13
2022-08-05T21:01:56.337Z,23.13
2022-08-05T21:04:24.314Z,23.14
2022-08-05T21:06:53.908Z,23.14
2022-08-05T21:09:20.343Z,23.05
2022-08-05T21:12:09.643Z,23.11
2022-08-05T21:14:35.163Z,23.07
2022-08-05T21:17:03.015Z,22.91
2022-08-05T21:19:46.955Z,22.79
2022-08-05T21:22:18.683Z,22.81
2022-08-05T21:24:48.903Z,22.83
2022-08-05T21:27:20.605Z,22.89
2022-08-05T21:29:51.294Z,22.93
2022-08-05T21:32:20.140Z,22.93
2022-08-05T21:34:56.032Z,23.05
2022-08-05T21:37:33.349Z,22.98
2022-08-05T21:40:05.717Z,22.98
2022-08-05T21:42:44.019Z,22.83
2022-08-05T21:45:11.938Z,22.76
2022-08-05T21:47:55.775Z,22.78
2022-08-05T21:50:24.133Z,22.80
2022-08-05T21:52:50.625Z,22.84
2022-08-05T21:55:21.609Z,22.83
2022-08-05T21:58:05.441Z,22.67
2022-08-05T22:00:31.990Z,22.68
2022-08-05T22:02:58.505Z,22.66
2022-08-05T22:05:27.481Z,22.56
2022-08-05T22:07:59.161Z,22.50
2022-08-05T22:10:29.004Z,22.45
2022-08-05T22:12:57.504Z,22.57
2022-08-05T22:16:01.499Z,22.52
2022-08-05T22:18:13.094Z,22.57
2022-08-05T22:20:41.320Z,22.51
2022-08-05T22:24:02.701Z,22.33
2022-08-05T22:26:32.801Z,22.25
2022-08-05T22:29:00.206Z,22.32
2022-08-05T22:31:30.114Z,22.20
2022-08-05T22:34:01.110Z,22.21
2022-08-05T22:36:28.276Z,22.19
2022-08-05T22:38:56.768Z,22.17
2022-08-05T22:42:04.133Z,22.10
2022-08-05T22:44:12.003Z,22.15
2022-08-05T22:46:39.891Z,22.10
2022-08-05T22:49:12.345Z,21.99
2022-08-05T22:52:04.579Z,21.95
2022-08-05T22:54:34.890Z,21.98
2022-08-05T22:57:01.377Z,21.94
2022-08-05T22:59:44.032Z,21.95
2022-08-05T23:02:16.666Z,21.98
2022-08-05T23:04:43.798Z,21.97
2022-08-05T23:07:18.517Z,21.88
2022-08-05T23:09:57.854Z,21.88
2022-08-05T23:12:32.576Z,21.89
2022-08-05T23:15:03.426Z,21.97
2022-08-05T23:17:32.690Z,21.89
2022-08-05T23:20:02.997Z,21.79
2022-08-05T23:22:29.746Z,21.67
2022-08-05T23:24:57.496Z,21.60
2022-08-05T23:27:24.199Z,21.60
2022-08-05T23:29:55.888Z,21.73
2022-08-05T23:32:22.604Z,21.76
2022-08-05T23:34:49.788Z,21.69
2022-08-05T23:37:18.003Z,21.55
2022-08-05T23:39:54.156Z,21.63
2022-08-05T23:42:23.550Z,21.60
2022-08-05T23:44:55.974Z,21.55
2022-08-05T23:47:22.535Z,21.49
2022-08-05T23:49:51.998Z,21.49
2022-08-05T23:52:29.218Z,21.51
2022-08-05T23:55:07.146Z,21.58
2022-08-05T23:57:35.835Z,21.52
